Terminal Aerodrome Forecast
Issued by NWS Shreveport, LA

Home | Current Version | Previous Version | Text Only | Print | Product List | Glossary On
Versions: 1 2 3 4 5 6 7 8 9 10 11 12 13
000
FTUS44 KSHV 310500
TAFTXK
TAF
KTXK 310523Z 3106/0106 09004KT P6SM -RA OVC100
      TEMPO 3108/3112 5SM SHRA BR SCT045 BKN060
     FM311200 10006KT 5SM SHRA BR BKN025
     FM311800 11007KT P6SM -RA SCT020 BKN025
     FM312100 09007KT P6SM -RA BKN035
     FM010000 08005KT P6SM VCSH BKN035=

USA.gov is the U.S. government's official web portal to all federal, state and local government web resources and services.